sensor_id;sensor_type;location;lat;lon;timestamp;pressure;altitude;pressure_sealevel;temperature
76394;BMP180;65216;51.090;-115.352;2022-12-10T00:01:49;86062.80;;;20.80
76394;BMP180;65216;51.090;-115.352;2022-12-10T00:04:19;86070.20;;;20.80
76394;BMP180;65216;51.090;-115.352;2022-12-10T00:06:47;86065.00;;;20.80
76394;BMP180;65216;51.090;-115.352;2022-12-10T00:09:17;86074.20;;;20.80
76394;BMP180;65216;51.090;-115.352;2022-12-10T00:11:45;86092.20;;;20.80
76394;BMP180;65216;51.090;-115.352;2022-12-10T00:14:16;86096.00;;;20.80
76394;BMP180;65216;51.090;-115.352;2022-12-10T00:16:44;86099.60;;;20.80
76394;BMP180;65216;51.090;-115.352;2022-12-10T00:19:15;86085.60;;;20.80
76394;BMP180;65216;51.090;-115.352;2022-12-10T00:21:46;86101.00;;;20.80
76394;BMP180;65216;51.090;-115.352;2022-12-10T00:24:19;86092.80;;;20.80
76394;BMP180;65216;51.090;-115.352;2022-12-10T00:26:47;86103.20;;;20.80
76394;BMP180;65216;51.090;-115.352;2022-12-10T00:29:17;86110.20;;;20.80
76394;BMP180;65216;51.090;-115.352;2022-12-10T00:31:45;86110.20;;;20.80
76394;BMP180;65216;51.090;-115.352;2022-12-10T00:34:16;86103.60;;;20.80
76394;BMP180;65216;51.090;-115.352;2022-12-10T00:36:46;86089.80;;;20.80
76394;BMP180;65216;51.090;-115.352;2022-12-10T00:39:19;86102.40;;;20.80
76394;BMP180;65216;51.090;-115.352;2022-12-10T00:41:47;86107.80;;;20.78
76394;BMP180;65216;51.090;-115.352;2022-12-10T00:44:15;86106.60;;;20.80
76394;BMP180;65216;51.090;-115.352;2022-12-10T00:46:43;86096.20;;;20.80
76394;BMP180;65216;51.090;-115.352;2022-12-10T00:49:11;86117.60;;;20.80
76394;BMP180;65216;51.090;-115.352;2022-12-10T00:51:41;86111.40;;;20.80
76394;BMP180;65216;51.090;-115.352;2022-12-10T00:54:11;86109.40;;;20.80
76394;BMP180;65216;51.090;-115.352;2022-12-10T00:56:39;86100.60;;;20.80
76394;BMP180;65216;51.090;-115.352;2022-12-10T00:59:06;86112.40;;;20.80
76394;BMP180;65216;51.090;-115.352;2022-12-10T01:01:40;86115.00;;;20.80
76394;BMP180;65216;51.090;-115.352;2022-12-10T01:04:14;86107.80;;;20.80
76394;BMP180;65216;51.090;-115.352;2022-12-10T01:09:16;86121.00;;;20.80
76394;BMP180;65216;51.090;-115.352;2022-12-10T01:11:46;86115.60;;;20.80
76394;BMP180;65216;51.090;-115.352;2022-12-10T01:14:19;86108.60;;;20.80
76394;BMP180;65216;51.090;-115.352;2022-12-10T01:16:47;86109.20;;;20.80
76394;BMP180;65216;51.090;-115.352;2022-12-10T01:19:18;86107.20;;;20.80
76394;BMP180;65216;51.090;-115.352;2022-12-10T01:21:45;86112.40;;;20.80
76394;BMP180;65216;51.090;-115.352;2022-12-10T01:24:16;86110.20;;;20.80
76394;BMP180;65216;51.090;-115.352;2022-12-10T01:26:43;86112.80;;;20.80
76394;BMP180;65216;51.090;-115.352;2022-12-10T01:29:12;86098.60;;;20.80
76394;BMP180;65216;51.090;-115.352;2022-12-10T01:31:45;86098.40;;;20.80
76394;BMP180;65216;51.090;-115.352;2022-12-10T01:34:14;86104.00;;;20.78
76394;BMP180;65216;51.090;-115.352;2022-12-10T01:36:49;86101.00;;;20.70
76394;BMP180;65216;51.090;-115.352;2022-12-10T01:39:19;86103.00;;;20.70
76394;BMP180;65216;51.090;-115.352;2022-12-10T01:41:55;86103.00;;;20.74
76394;BMP180;65216;51.090;-115.352;2022-12-10T01:46:54;86117.60;;;20.76
76394;BMP180;65216;51.090;-115.352;2022-12-10T01:49:32;86108.20;;;20.70
76394;BMP180;65216;51.090;-115.352;2022-12-10T01:52:05;86113.40;;;20.70
76394;BMP180;65216;51.090;-115.352;2022-12-10T01:54:40;86114.00;;;20.70
76394;BMP180;65216;51.090;-115.352;2022-12-10T01:57:37;86114.20;;;20.70
76394;BMP180;65216;51.090;-115.352;2022-12-10T02:00:05;86111.20;;;20.72
76394;BMP180;65216;51.090;-115.352;2022-12-10T02:02:46;86096.60;;;20.70
76394;BMP180;65216;51.090;-115.352;2022-12-10T02:05:47;86103.20;;;20.70
76394;BMP180;65216;51.090;-115.352;2022-12-10T02:08:35;86106.20;;;20.70
76394;BMP180;65216;51.090;-115.352;2022-12-10T02:11:23;86099.60;;;20.70
76394;BMP180;65216;51.090;-115.352;2022-12-10T02:17:45;86094.40;;;20.70
76394;BMP180;65216;51.090;-115.352;2022-12-10T02:20:23;86087.80;;;20.70
76394;BMP180;65216;51.090;-115.352;2022-12-10T02:22:56;86102.20;;;20.70
76394;BMP180;65216;51.090;-115.352;2022-12-10T02:25:48;86105.40;;;20.70
76394;BMP180;65216;51.090;-115.352;2022-12-10T02:31:06;86117.00;;;20.70
76394;BMP180;65216;51.090;-115.352;2022-12-10T02:33:38;86112.20;;;20.70
76394;BMP180;65216;51.090;-115.352;2022-12-10T02:36:13;86110.40;;;20.70
76394;BMP180;65216;51.090;-115.352;2022-12-10T02:38:43;86108.40;;;20.70
76394;BMP180;65216;51.090;-115.352;2022-12-10T02:41:27;86106.00;;;20.70
76394;BMP180;65216;51.090;-115.352;2022-12-10T02:43:59;86106.20;;;20.70
76394;BMP180;65216;51.090;-115.352;2022-12-10T02:46:30;86113.40;;;20.72
76394;BMP180;65216;51.090;-115.352;2022-12-10T02:49:06;86110.00;;;20.70
76394;BMP180;65216;51.090;-115.352;2022-12-10T02:51:34;86106.40;;;20.70
76394;BMP180;65216;51.090;-115.352;2022-12-10T02:54:04;86111.00;;;20.70
76394;BMP180;65216;51.090;-115.352;2022-12-10T02:56:44;86109.60;;;20.70
76394;BMP180;65216;51.090;-115.352;2022-12-10T02:59:32;86109.60;;;20.70
76394;BMP180;65216;51.090;-115.352;2022-12-10T03:02:19;86107.80;;;20.70
76394;BMP180;65216;51.090;-115.352;2022-12-10T03:05:12;86108.80;;;20.70
76394;BMP180;65216;51.090;-115.352;2022-12-10T03:08:19;86113.60;;;20.70
76394;BMP180;65216;51.090;-115.352;2022-12-10T03:11:16;86112.20;;;20.70
76394;BMP180;65216;51.090;-115.352;2022-12-10T03:16:41;86113.60;;;20.70
76394;BMP180;65216;51.090;-115.352;2022-12-10T03:19:21;86116.20;;;20.70
76394;BMP180;65216;51.090;-115.352;2022-12-10T03:21:52;86105.20;;;20.70
76394;BMP180;65216;51.090;-115.352;2022-12-10T03:24:22;86109.80;;;20.70
76394;BMP180;65216;51.090;-115.352;2022-12-10T03:26:55;86114.60;;;20.70
76394;BMP180;65216;51.090;-115.352;2022-12-10T03:29:45;86114.20;;;20.70
76394;BMP180;65216;51.090;-115.352;2022-12-10T03:32:14;86111.60;;;20.70
76394;BMP180;65216;51.090;-115.352;2022-12-10T03:34:44;86120.40;;;20.70
76394;BMP180;65216;51.090;-115.352;2022-12-10T03:37:18;86115.60;;;20.70
76394;BMP180;65216;51.090;-115.352;2022-12-10T03:39:46;86109.20;;;20.70
76394;BMP180;65216;51.090;-115.352;2022-12-10T03:42:13;86111.20;;;20.70
76394;BMP180;65216;51.090;-115.352;2022-12-10T03:44:41;86121.00;;;20.70
76394;BMP180;65216;51.090;-115.352;2022-12-10T03:47:12;86114.00;;;20.70
76394;BMP180;65216;51.090;-115.352;2022-12-10T03:49:44;86120.00;;;20.70
76394;BMP180;65216;51.090;-115.352;2022-12-10T03:52:15;86116.80;;;20.70
76394;BMP180;65216;51.090;-115.352;2022-12-10T03:54:48;86114.80;;;20.70
76394;BMP180;65216;51.090;-115.352;2022-12-10T03:57:16;86119.60;;;20.70
76394;BMP180;65216;51.090;-115.352;2022-12-10T03:59:43;86111.60;;;20.70
76394;BMP180;65216;51.090;-115.352;2022-12-10T04:02:11;86116.80;;;20.70
76394;BMP180;65216;51.090;-115.352;2022-12-10T04:04:41;86109.20;;;20.68
76394;BMP180;65216;51.090;-115.352;2022-12-10T04:07:08;86101.60;;;20.60
76394;BMP180;65216;51.090;-115.352;2022-12-10T04:09:35;86097.20;;;20.60
76394;BMP180;65216;51.090;-115.352;2022-12-10T04:12:03;86098.80;;;20.60
76394;BMP180;65216;51.090;-115.352;2022-12-10T04:14:33;86107.80;;;20.60
76394;BMP180;65216;51.090;-115.352;2022-12-10T04:17:19;86105.00;;;20.60
76394;BMP180;65216;51.090;-115.352;2022-12-10T04:19:47;86105.20;;;20.60
76394;BMP180;65216;51.090;-115.352;2022-12-10T04:22:14;86100.80;;;20.60
76394;BMP180;65216;51.090;-115.352;2022-12-10T04:25:05;86102.00;;;20.60
76394;BMP180;65216;51.090;-115.352;2022-12-10T04:27:51;86095.00;;;20.60
76394;BMP180;65216;51.090;-115.352;2022-12-10T04:30:19;86097.40;;;20.60
76394;BMP180;65216;51.090;-115.352;2022-12-10T04:32:49;86090.00;;;20.60
76394;BMP180;65216;51.090;-115.352;2022-12-10T04:35:19;86092.40;;;20.60
76394;BMP180;65216;51.090;-115.352;2022-12-10T04:37:47;86091.20;;;20.58
76394;BMP180;65216;51.090;-115.352;2022-12-10T04:40:14;86102.80;;;20.58
76394;BMP180;65216;51.090;-115.352;2022-12-10T04:42:42;86096.60;;;20.50
76394;BMP180;65216;51.090;-115.352;2022-12-10T04:45:09;86093.80;;;20.50
76394;BMP180;65216;51.090;-115.352;2022-12-10T04:47:40;86087.40;;;20.50
76394;BMP180;65216;51.090;-115.352;2022-12-10T04:50:13;86087.20;;;20.50
76394;BMP180;65216;51.090;-115.352;2022-12-10T04:52:40;86088.40;;;20.50
76394;BMP180;65216;51.090;-115.352;2022-12-10T04:55:10;86078.00;;;20.50
76394;BMP180;65216;51.090;-115.352;2022-12-10T04:57:38;86069.60;;;20.50
76394;BMP180;65216;51.090;-115.352;2022-12-10T05:00:09;86071.00;;;20.50
76394;BMP180;65216;51.090;-115.352;2022-12-10T05:02:37;86069.60;;;20.50
76394;BMP180;65216;51.090;-115.352;2022-12-10T05:05:08;86062.60;;;20.50
76394;BMP180;65216;51.090;-115.352;2022-12-10T05:07:35;86056.20;;;20.50
76394;BMP180;65216;51.090;-115.352;2022-12-10T05:10:03;86054.60;;;20.40
76394;BMP180;65216;51.090;-115.352;2022-12-10T05:12:33;86059.00;;;20.42
76394;BMP180;65216;51.090;-115.352;2022-12-10T05:15:01;86055.60;;;20.44
76394;BMP180;65216;51.090;-115.352;2022-12-10T05:17:31;86047.80;;;20.40
76394;BMP180;65216;51.090;-115.352;2022-12-10T05:19:59;86047.20;;;20.40
76394;BMP180;65216;51.090;-115.352;2022-12-10T05:22:26;86044.60;;;20.40
76394;BMP180;65216;51.090;-115.352;2022-12-10T05:25:12;86051.20;;;20.40
76394;BMP180;65216;51.090;-115.352;2022-12-10T05:27:43;86050.80;;;20.40
76394;BMP180;65216;51.090;-115.352;2022-12-10T05:30:13;86054.40;;;20.40
76394;BMP180;65216;51.090;-115.352;2022-12-10T05:32:40;86050.80;;;20.40
76394;BMP180;65216;51.090;-115.352;2022-12-10T05:35:10;86046.80;;;20.40
76394;BMP180;65216;51.090;-115.352;2022-12-10T05:37:41;86052.80;;;20.40
76394;BMP180;65216;51.090;-115.352;2022-12-10T05:40:12;86049.80;;;20.40
76394;BMP180;65216;51.090;-115.352;2022-12-10T05:42:39;86049.40;;;20.40
76394;BMP180;65216;51.090;-115.352;2022-12-10T05:45:07;86036.40;;;20.38
76394;BMP180;65216;51.090;-115.352;2022-12-10T05:47:35;86026.40;;;20.36
76394;BMP180;65216;51.090;-115.352;2022-12-10T05:50:02;86028.80;;;20.30
76394;BMP180;65216;51.090;-115.352;2022-12-10T05:52:30;86028.40;;;20.30
76394;BMP180;65216;51.090;-115.352;2022-12-10T05:54:57;86022.00;;;20.30
76394;BMP180;65216;51.090;-115.352;2022-12-10T05:57:25;86023.40;;;20.30
76394;BMP180;65216;51.090;-115.352;2022-12-10T05:59:53;86021.00;;;20.30
76394;BMP180;65216;51.090;-115.352;2022-12-10T06:02:26;86020.20;;;20.30
76394;BMP180;65216;51.090;-115.352;2022-12-10T06:04:57;86022.60;;;20.30
76394;BMP180;65216;51.090;-115.352;2022-12-10T06:07:24;86026.80;;;20.30
76394;BMP180;65216;51.090;-115.352;2022-12-10T06:09:52;86022.00;;;20.30
76394;BMP180;65216;51.090;-115.352;2022-12-10T06:12:22;86020.20;;;20.30
76394;BMP180;65216;51.090;-115.352;2022-12-10T06:14:50;86014.00;;;20.30
76394;BMP180;65216;51.090;-115.352;2022-12-10T06:17:17;86019.00;;;20.30
76394;BMP180;65216;51.090;-115.352;2022-12-10T06:19:47;86017.60;;;20.22
76394;BMP180;65216;51.090;-115.352;2022-12-10T06:22:17;86015.00;;;20.22
76394;BMP180;65216;51.090;-115.352;2022-12-10T06:24:48;86016.20;;;20.20
76394;BMP180;65216;51.090;-115.352;2022-12-10T06:27:15;86013.40;;;20.20
76394;BMP180;65216;51.090;-115.352;2022-12-10T06:29:46;86012.00;;;20.20
76394;BMP180;65216;51.090;-115.352;2022-12-10T06:32:13;86009.80;;;20.20
76394;BMP180;65216;51.090;-115.352;2022-12-10T06:34:41;86005.00;;;20.20
76394;BMP180;65216;51.090;-115.352;2022-12-10T06:37:08;86001.80;;;20.20
76394;BMP180;65216;51.090;-115.352;2022-12-10T06:39:39;86005.40;;;20.20
76394;BMP180;65216;51.090;-115.352;2022-12-10T06:42:11;86008.80;;;20.20
76394;BMP180;65216;51.090;-115.352;2022-12-10T06:44:42;86000.00;;;20.20
76394;BMP180;65216;51.090;-115.352;2022-12-10T06:47:10;86001.20;;;20.20
76394;BMP180;65216;51.090;-115.352;2022-12-10T06:49:37;85999.40;;;20.20
76394;BMP180;65216;51.090;-115.352;2022-12-10T06:52:04;85997.60;;;20.20
76394;BMP180;65216;51.090;-115.352;2022-12-10T06:54:32;85999.80;;;20.20
76394;BMP180;65216;51.090;-115.352;2022-12-10T06:57:00;85991.80;;;20.20
76394;BMP180;65216;51.090;-115.352;2022-12-10T06:59:30;85995.20;;;20.20
76394;BMP180;65216;51.090;-115.352;2022-12-10T07:01:57;85994.40;;;20.20
76394;BMP180;65216;51.090;-115.352;2022-12-10T07:04:28;85993.20;;;20.20
76394;BMP180;65216;51.090;-115.352;2022-12-10T07:06:59;85994.60;;;20.20
76394;BMP180;65216;51.090;-115.352;2022-12-10T07:09:28;85997.60;;;20.20
76394;BMP180;65216;51.090;-115.352;2022-12-10T07:12:01;85997.60;;;20.20
76394;BMP180;65216;51.090;-115.352;2022-12-10T07:14:32;85986.80;;;20.20
76394;BMP180;65216;51.090;-115.352;2022-12-10T07:17:03;85973.80;;;20.20
76394;BMP180;65216;51.090;-115.352;2022-12-10T07:19:34;85970.40;;;20.20
76394;BMP180;65216;51.090;-115.352;2022-12-10T07:22:02;85960.60;;;20.20
76394;BMP180;65216;51.090;-115.352;2022-12-10T07:24:30;85968.80;;;20.20
76394;BMP180;65216;51.090;-115.352;2022-12-10T07:26:57;85966.80;;;20.18
76394;BMP180;65216;51.090;-115.352;2022-12-10T07:29:24;85962.00;;;20.20
76394;BMP180;65216;51.090;-115.352;2022-12-10T07:31:53;85963.80;;;20.20
76394;BMP180;65216;51.090;-115.352;2022-12-10T07:34:22;85964.20;;;20.20
76394;BMP180;65216;51.090;-115.352;2022-12-10T07:36:49;85962.40;;;20.20
76394;BMP180;65216;51.090;-115.352;2022-12-10T07:39:19;85961.20;;;20.20
76394;BMP180;65216;51.090;-115.352;2022-12-10T07:41:52;85965.80;;;20.20
76394;BMP180;65216;51.090;-115.352;2022-12-10T07:44:24;85961.20;;;20.20
76394;BMP180;65216;51.090;-115.352;2022-12-10T07:46:54;85963.00;;;20.20
76394;BMP180;65216;51.090;-115.352;2022-12-10T07:49:22;85961.80;;;20.20
76394;BMP180;65216;51.090;-115.352;2022-12-10T07:51:51;85959.60;;;20.20
76394;BMP180;65216;51.090;-115.352;2022-12-10T07:54:21;85961.00;;;20.20
76394;BMP180;65216;51.090;-115.352;2022-12-10T07:56:51;85957.60;;;20.20
76394;BMP180;65216;51.090;-115.352;2022-12-10T07:59:21;85953.80;;;20.20
76394;BMP180;65216;51.090;-115.352;2022-12-10T08:01:49;85951.60;;;20.20
76394;BMP180;65216;51.090;-115.352;2022-12-10T08:04:19;85945.00;;;20.20
76394;BMP180;65216;51.090;-115.352;2022-12-10T08:06:54;85946.00;;;20.20
76394;BMP180;65216;51.090;-115.352;2022-12-10T08:09:23;85944.20;;;20.16
76394;BMP180;65216;51.090;-115.352;2022-12-10T08:11:52;85946.40;;;20.14
76394;BMP180;65216;51.090;-115.352;2022-12-10T08:14:20;85946.80;;;20.12
76394;BMP180;65216;51.090;-115.352;2022-12-10T08:16:47;85942.80;;;20.12
76394;BMP180;65216;51.090;-115.352;2022-12-10T08:19:18;85947.80;;;20.10
76394;BMP180;65216;51.090;-115.352;2022-12-10T08:21:49;85943.80;;;20.10
76394;BMP180;65216;51.090;-115.352;2022-12-10T08:24:17;85941.20;;;20.10
76394;BMP180;65216;51.090;-115.352;2022-12-10T08:26:46;85935.20;;;20.10
76394;BMP180;65216;51.090;-115.352;2022-12-10T08:29:14;85931.80;;;20.10
76394;BMP180;65216;51.090;-115.352;2022-12-10T08:31:41;85930.80;;;20.10
76394;BMP180;65216;51.090;-115.352;2022-12-10T08:34:14;85935.00;;;20.10
76394;BMP180;65216;51.090;-115.352;2022-12-10T08:36:46;85935.80;;;20.10
76394;BMP180;65216;51.090;-115.352;2022-12-10T08:39:14;85931.20;;;20.10
76394;BMP180;65216;51.090;-115.352;2022-12-10T08:41:49;85927.00;;;20.10
76394;BMP180;65216;51.090;-115.352;2022-12-10T08:44:27;85933.00;;;20.10
76394;BMP180;65216;51.090;-115.352;2022-12-10T08:46:58;85933.20;;;20.10
76394;BMP180;65216;51.090;-115.352;2022-12-10T08:49:30;85933.80;;;20.10
76394;BMP180;65216;51.090;-115.352;2022-12-10T08:52:07;85935.00;;;20.10
76394;BMP180;65216;51.090;-115.352;2022-12-10T08:54:38;85933.40;;;20.10
76394;BMP180;65216;51.090;-115.352;2022-12-10T08:57:40;85934.00;;;20.10
76394;BMP180;65216;51.090;-115.352;2022-12-10T09:00:12;85931.80;;;20.10
76394;BMP180;65216;51.090;-115.352;2022-12-10T09:02:51;85928.80;;;20.10
76394;BMP180;65216;51.090;-115.352;2022-12-10T09:05:18;85926.80;;;20.08
76394;BMP180;65216;51.090;-115.352;2022-12-10T09:07:46;85923.80;;;20.04
76394;BMP180;65216;51.090;-115.352;2022-12-10T09:10:20;85925.80;;;20.04
76394;BMP180;65216;51.090;-115.352;2022-12-10T09:13:17;85926.20;;;20.00
76394;BMP180;65216;51.090;-115.352;2022-12-10T09:15:53;85925.80;;;20.02
76394;BMP180;65216;51.090;-115.352;2022-12-10T09:18:23;85919.60;;;20.00
76394;BMP180;65216;51.090;-115.352;2022-12-10T09:20:53;85915.20;;;20.00
76394;BMP180;65216;51.090;-115.352;2022-12-10T09:23:51;85911.80;;;20.00
76394;BMP180;65216;51.090;-115.352;2022-12-10T09:26:21;85914.60;;;20.00
76394;BMP180;65216;51.090;-115.352;2022-12-10T09:28:50;85909.00;;;20.00
76394;BMP180;65216;51.090;-115.352;2022-12-10T09:31:21;85904.80;;;20.00
76394;BMP180;65216;51.090;-115.352;2022-12-10T09:33:52;85903.80;;;20.00
76394;BMP180;65216;51.090;-115.352;2022-12-10T09:36:21;85900.60;;;20.00
76394;BMP180;65216;51.090;-115.352;2022-12-10T09:38:52;85893.20;;;20.00
76394;BMP180;65216;51.090;-115.352;2022-12-10T09:47:30;85881.40;;;20.00
76394;BMP180;65216;51.090;-115.352;2022-12-10T09:52:45;85877.40;;;20.00
76394;BMP180;65216;51.090;-115.352;2022-12-10T09:55:44;85872.20;;;20.00
76394;BMP180;65216;51.090;-115.352;2022-12-10T09:58:26;85864.20;;;20.00
76394;BMP180;65216;51.090;-115.352;2022-12-10T10:01:03;85862.20;;;20.00
76394;BMP180;65216;51.090;-115.352;2022-12-10T10:03:41;85862.00;;;20.00
76394;BMP180;65216;51.090;-115.352;2022-12-10T10:06:13;85849.80;;;20.00
76394;BMP180;65216;51.090;-115.352;2022-12-10T10:08:58;85849.60;;;20.00
76394;BMP180;65216;51.090;-115.352;2022-12-10T10:11:33;85852.00;;;20.00
76394;BMP180;65216;51.090;-115.352;2022-12-10T10:14:35;85846.00;;;20.00
76394;BMP180;65216;51.090;-115.352;2022-12-10T10:17:11;85852.20;;;20.00
76394;BMP180;65216;51.090;-115.352;2022-12-10T10:19:39;85849.60;;;20.00
76394;BMP180;65216;51.090;-115.352;2022-12-10T10:22:11;85848.00;;;20.00
76394;BMP180;65216;51.090;-115.352;2022-12-10T10:24:45;85843.60;;;20.00
76394;BMP180;65216;51.090;-115.352;2022-12-10T10:27:21;85835.00;;;20.00
76394;BMP180;65216;51.090;-115.352;2022-12-10T10:29:52;85837.60;;;20.00
76394;BMP180;65216;51.090;-115.352;2022-12-10T10:35:05;85843.00;;;20.00
76394;BMP180;65216;51.090;-115.352;2022-12-10T10:40:12;85839.80;;;20.00
76394;BMP180;65216;51.090;-115.352;2022-12-10T10:42:48;85829.40;;;20.00
76394;BMP180;65216;51.090;-115.352;2022-12-10T10:45:41;85834.20;;;19.96
76394;BMP180;65216;51.090;-115.352;2022-12-10T10:48:17;85842.80;;;20.00
76394;BMP180;65216;51.090;-115.352;2022-12-10T10:53:42;85832.20;;;19.92
76394;BMP180;65216;51.090;-115.352;2022-12-10T10:59:35;85830.80;;;19.90
76394;BMP180;65216;51.090;-115.352;2022-12-10T11:04:57;85839.80;;;19.90
76394;BMP180;65216;51.090;-115.352;2022-12-10T11:07:42;85843.80;;;19.90
76394;BMP180;65216;51.090;-115.352;2022-12-10T11:10:25;85845.60;;;19.90
76394;BMP180;65216;51.090;-115.352;2022-12-10T11:13:26;85842.40;;;19.82
76394;BMP180;65216;51.090;-115.352;2022-12-10T11:18:38;85848.20;;;19.80
76394;BMP180;65216;51.090;-115.352;2022-12-10T11:21:18;85847.60;;;19.80
76394;BMP180;65216;51.090;-115.352;2022-12-10T11:23:54;85839.00;;;19.76
76394;BMP180;65216;51.090;-115.352;2022-12-10T11:26:44;85833.20;;;19.72
76394;BMP180;65216;51.090;-115.352;2022-12-10T11:34:59;85826.60;;;19.70
76394;BMP180;65216;51.090;-115.352;2022-12-10T11:37:57;85829.40;;;19.70
76394;BMP180;65216;51.090;-115.352;2022-12-10T11:40:45;85821.00;;;19.70
76394;BMP180;65216;51.090;-115.352;2022-12-10T12:04:40;85795.40;;;19.50
76394;BMP180;65216;51.090;-115.352;2022-12-10T12:07:45;85791.40;;;19.50
76394;BMP180;65216;51.090;-115.352;2022-12-10T12:10:52;85779.80;;;19.50
76394;BMP180;65216;51.090;-115.352;2022-12-10T12:13:40;85780.00;;;19.50
76394;BMP180;65216;51.090;-115.352;2022-12-10T12:16:18;85780.20;;;19.50
76394;BMP180;65216;51.090;-115.352;2022-12-10T12:18:59;85776.20;;;19.50
76394;BMP180;65216;51.090;-115.352;2022-12-10T12:21:30;85783.20;;;19.50
76394;BMP180;65216;51.090;-115.352;2022-12-10T12:30:16;85777.00;;;19.50
76394;BMP180;65216;51.090;-115.352;2022-12-10T12:41:17;85756.00;;;19.42
76394;BMP180;65216;51.090;-115.352;2022-12-10T12:47:11;85743.40;;;19.40
76394;BMP180;65216;51.090;-115.352;2022-12-10T12:49:49;85738.20;;;19.40
76394;BMP180;65216;51.090;-115.352;2022-12-10T12:55:00;85737.40;;;19.40
76394;BMP180;65216;51.090;-115.352;2022-12-10T12:57:51;85732.40;;;19.40
76394;BMP180;65216;51.090;-115.352;2022-12-10T13:00:22;85730.60;;;19.40
76394;BMP180;65216;51.090;-115.352;2022-12-10T13:05:46;85724.00;;;19.40
76394;BMP180;65216;51.090;-115.352;2022-12-10T13:22:06;85706.60;;;19.40
76394;BMP180;65216;51.090;-115.352;2022-12-10T13:24:44;85701.00;;;19.40
76394;BMP180;65216;51.090;-115.352;2022-12-10T13:27:32;85703.00;;;19.40
76394;BMP180;65216;51.090;-115.352;2022-12-10T13:33:15;85716.20;;;19.30
76394;BMP180;65216;51.090;-115.352;2022-12-10T13:35:57;85725.00;;;19.30
76394;BMP180;65216;51.090;-115.352;2022-12-10T13:38:27;85734.60;;;19.30
76394;BMP180;65216;51.090;-115.352;2022-12-10T13:41:12;85746.20;;;19.30
76394;BMP180;65216;51.090;-115.352;2022-12-10T13:44:00;85746.20;;;19.30
76394;BMP180;65216;51.090;-115.352;2022-12-10T13:49:29;85747.00;;;19.30
76394;BMP180;65216;51.090;-115.352;2022-12-10T13:52:07;85735.00;;;19.30
76394;BMP180;65216;51.090;-115.352;2022-12-10T13:55:34;85729.20;;;19.30
76394;BMP180;65216;51.090;-115.352;2022-12-10T13:57:57;85728.00;;;19.30
76394;BMP180;65216;51.090;-115.352;2022-12-10T14:06:35;85718.00;;;19.30
76394;BMP180;65216;51.090;-115.352;2022-12-10T14:11:51;85709.60;;;19.30
76394;BMP180;65216;51.090;-115.352;2022-12-10T14:14:45;85721.00;;;19.30
76394;BMP180;65216;51.090;-115.352;2022-12-10T14:17:19;85714.60;;;19.30
76394;BMP180;65216;51.090;-115.352;2022-12-10T14:19:54;85704.00;;;19.30
76394;BMP180;65216;51.090;-115.352;2022-12-10T14:23:05;85698.20;;;19.30
76394;BMP180;65216;51.090;-115.352;2022-12-10T14:25:52;85698.00;;;19.30
76394;BMP180;65216;51.090;-115.352;2022-12-10T14:28:23;85693.00;;;19.30
76394;BMP180;65216;51.090;-115.352;2022-12-10T14:30:51;85693.60;;;19.30
76394;BMP180;65216;51.090;-115.352;2022-12-10T14:33:22;85685.00;;;19.30
76394;BMP180;65216;51.090;-115.352;2022-12-10T14:36:02;85691.00;;;19.30
76394;BMP180;65216;51.090;-115.352;2022-12-10T14:38:36;85698.00;;;19.30
76394;BMP180;65216;51.090;-115.352;2022-12-10T14:41:04;85689.20;;;19.30
76394;BMP180;65216;51.090;-115.352;2022-12-10T14:43:38;85688.60;;;19.30
76394;BMP180;65216;51.090;-115.352;2022-12-10T14:46:20;85687.40;;;19.30
76394;BMP180;65216;51.090;-115.352;2022-12-10T14:48:54;85689.40;;;19.32
76394;BMP180;65216;51.090;-115.352;2022-12-10T14:51:25;85691.80;;;19.40
76394;BMP180;65216;51.090;-115.352;2022-12-10T14:53:54;85676.60;;;19.40
76394;BMP180;65216;51.090;-115.352;2022-12-10T14:56:29;85680.00;;;19.40
76394;BMP180;65216;51.090;-115.352;2022-12-10T14:59:19;85690.00;;;19.40
76394;BMP180;65216;51.090;-115.352;2022-12-10T15:01:54;85683.20;;;19.40
76394;BMP180;65216;51.090;-115.352;2022-12-10T15:04:40;85691.40;;;19.40
76394;BMP180;65216;51.090;-115.352;2022-12-10T15:07:20;85689.80;;;19.40
76394;BMP180;65216;51.090;-115.352;2022-12-10T15:09:51;85691.40;;;19.40
76394;BMP180;65216;51.090;-115.352;2022-12-10T15:12:38;85696.00;;;19.40
76394;BMP180;65216;51.090;-115.352;2022-12-10T15:15:38;85690.80;;;19.40
76394;BMP180;65216;51.090;-115.352;2022-12-10T15:18:38;85702.20;;;19.40
76394;BMP180;65216;51.090;-115.352;2022-12-10T15:21:27;85696.40;;;19.40
76394;BMP180;65216;51.090;-115.352;2022-12-10T15:24:46;85701.20;;;19.40
76394;BMP180;65216;51.090;-115.352;2022-12-10T15:27:24;85689.60;;;19.40
76394;BMP180;65216;51.090;-115.352;2022-12-10T15:29:54;85681.80;;;19.40
76394;BMP180;65216;51.090;-115.352;2022-12-10T15:32:27;85694.40;;;19.40
76394;BMP180;65216;51.090;-115.352;2022-12-10T15:35:02;85708.20;;;19.40
76394;BMP180;65216;51.090;-115.352;2022-12-10T15:37:39;85701.40;;;19.42
76394;BMP180;65216;51.090;-115.352;2022-12-10T15:40:30;85698.80;;;19.48
76394;BMP180;65216;51.090;-115.352;2022-12-10T15:43:27;85707.60;;;19.48
76394;BMP180;65216;51.090;-115.352;2022-12-10T15:45:59;85703.80;;;19.50
76394;BMP180;65216;51.090;-115.352;2022-12-10T15:48:29;85694.60;;;19.50
76394;BMP180;65216;51.090;-115.352;2022-12-10T15:50:59;85706.40;;;19.50
76394;BMP180;65216;51.090;-115.352;2022-12-10T15:53:37;85695.00;;;19.50
76394;BMP180;65216;51.090;-115.352;2022-12-10T15:56:05;85684.20;;;19.50
76394;BMP180;65216;51.090;-115.352;2022-12-10T15:58:33;85700.40;;;19.50
76394;BMP180;65216;51.090;-115.352;2022-12-10T16:01:01;85698.60;;;19.50
76394;BMP180;65216;51.090;-115.352;2022-12-10T16:03:34;85704.20;;;19.50
76394;BMP180;65216;51.090;-115.352;2022-12-10T16:06:07;85694.20;;;19.50
76394;BMP180;65216;51.090;-115.352;2022-12-10T16:08:35;85696.80;;;19.50
76394;BMP180;65216;51.090;-115.352;2022-12-10T16:11:15;85713.80;;;19.50